createdAt,value
2016-06-09T00:00:39.860Z,0
2016-06-09T00:01:39.849Z,0
2016-06-09T00:02:39.820Z,0
2016-06-09T00:03:39.823Z,0
2016-06-09T00:04:39.811Z,0
2016-06-09T00:05:39.798Z,0
2016-06-09T00:06:39.614Z,0
2016-06-09T00:07:39.773Z,0
2016-06-09T00:08:39.746Z,0
2016-06-09T00:09:39.732Z,0
2016-06-09T00:10:39.736Z,0
2016-06-09T00:11:39.722Z,0
2016-06-09T00:12:39.694Z,0
2016-06-09T00:13:39.697Z,0
2016-06-09T00:14:39.685Z,0
2016-06-09T00:15:39.656Z,0
2016-06-09T00:16:39.644Z,0
2016-06-09T00:17:39.476Z,0
2016-06-09T00:18:39.634Z,0
2016-06-09T00:19:39.607Z,0
2016-06-09T00:20:39.579Z,0
2016-06-09T00:21:39.582Z,0
2016-06-09T00:22:39.553Z,0
2016-06-09T00:23:39.573Z,0
2016-06-09T00:24:39.559Z,0
2016-06-09T00:25:39.531Z,0
2016-06-09T00:26:39.363Z,0
2016-06-09T00:27:39.491Z,0
2016-06-09T00:28:39.494Z,0
2016-06-09T00:29:39.465Z,0
2016-06-09T00:30:39.313Z,0
2016-06-09T00:31:39.441Z,0
2016-06-09T00:32:39.428Z,0
2016-06-09T00:33:39.603Z,0
2016-06-09T00:34:39.403Z,0
2016-06-09T00:35:39.391Z,0
2016-06-09T00:36:39.393Z,0
2016-06-09T00:37:39.365Z,0
2016-06-09T00:38:39.353Z,0
2016-06-09T00:39:39.340Z,0
2016-06-09T00:40:39.327Z,0
2016-06-09T00:41:39.331Z,0
2016-06-09T00:42:39.303Z,0
2016-06-09T00:43:39.289Z,0
2016-06-09T00:44:39.278Z,0
2016-06-09T00:45:39.264Z,0
2016-06-09T00:46:39.252Z,0
2016-06-09T00:47:39.224Z,0
2016-06-09T00:48:40.118Z,0
2016-06-09T00:49:39.214Z,0
2016-06-09T00:50:39.202Z,0
2016-06-09T00:51:39.175Z,0
2016-06-09T00:52:39.177Z,0
2016-06-09T00:53:39.149Z,0
2016-06-09T00:54:39.137Z,0
2016-06-09T00:55:39.139Z,0
2016-06-09T00:56:39.110Z,0
2016-06-09T00:57:39.114Z,0
2016-06-09T00:58:39.086Z,0
2016-06-09T00:59:38.917Z,0
2016-06-09T01:00:39.061Z,0
2016-06-09T01:01:39.048Z,0
2016-06-09T01:02:39.051Z,0
2016-06-09T01:03:39.601Z,0
2016-06-09T01:04:39.026Z,0
2016-06-09T01:05:39.014Z,0
2016-06-09T01:06:38.985Z,0
2016-06-09T01:07:38.988Z,0
2016-06-09T01:08:38.960Z,0
2016-06-09T01:09:38.948Z,0
2016-06-09T01:10:38.951Z,0
2016-06-09T01:11:38.907Z,0
2016-06-09T01:12:38.910Z,0
2016-06-09T01:13:38.898Z,0
2016-06-09T01:14:38.885Z,0
2016-06-09T01:15:38.873Z,0
2016-06-09T01:16:38.844Z,0
2016-06-09T01:17:38.847Z,0
2016-06-09T01:18:39.492Z,0
2016-06-09T01:19:38.494Z,0
2016-06-09T01:20:38.794Z,0
2016-06-09T01:21:38.798Z,0
2016-06-09T01:22:38.770Z,0
2016-06-09T01:23:38.772Z,0
2016-06-09T01:24:38.744Z,0
2016-06-09T01:25:38.732Z,0
2016-06-09T01:26:38.735Z,0
2016-06-09T01:27:38.705Z,0
2016-06-09T01:28:38.538Z,0
2016-06-09T01:29:38.682Z,0
2016-06-09T01:30:38.669Z,0
2016-06-09T01:31:38.656Z,0
2016-06-09T01:32:38.643Z,0
2016-06-09T01:33:39.460Z,0
2016-06-09T01:34:40.368Z,0
2016-06-09T01:35:38.605Z,0
2016-06-09T01:36:38.594Z,0
2016-06-09T01:37:38.565Z,0
2016-06-09T01:38:38.553Z,0
2016-06-09T01:39:38.540Z,0
2016-06-09T01:40:38.543Z,0
2016-06-09T01:41:38.515Z,0
2016-06-09T01:42:38.502Z,0
2016-06-09T01:43:38.490Z,0
2016-06-09T01:44:38.477Z,0
2016-06-09T01:45:38.466Z,0
2016-06-09T01:46:38.468Z,0
2016-06-09T01:47:38.440Z,0
2016-06-09T01:48:38.443Z,0
2016-06-09T01:49:38.321Z,0
2016-06-09T01:50:38.418Z,0
2016-06-09T01:51:38.390Z,0
2016-06-09T01:52:38.377Z,0
2016-06-09T01:53:38.349Z,0
2016-06-09T01:54:38.351Z,0
2016-06-09T01:55:38.324Z,0
2016-06-09T01:56:38.342Z,0
2016-06-09T01:57:38.314Z,0
2016-06-09T01:58:38.286Z,0
2016-06-09T01:59:38.274Z,0
2016-06-09T02:00:38.276Z,0
2016-06-09T02:01:38.248Z,0
2016-06-09T02:02:38.236Z,0
2016-06-09T02:03:39.396Z,0
2016-06-09T02:04:38.664Z,0
2016-06-09T02:05:38.230Z,0
2016-06-09T02:06:38.186Z,0
2016-06-09T02:07:38.173Z,0
2016-06-09T02:08:38.161Z,0
2016-06-09T02:09:38.148Z,0
2016-06-09T02:10:38.151Z,0
2016-06-09T02:11:38.107Z,0
2016-06-09T02:12:38.094Z,0
2016-06-09T02:13:38.098Z,0
2016-06-09T02:14:38.069Z,0
2016-06-09T02:15:38.058Z,0
2016-06-09T02:16:38.061Z,0
2016-06-09T02:17:38.032Z,0
2016-06-09T02:18:38.784Z,0
2016-06-09T02:19:38.023Z,0
2016-06-09T02:20:37.979Z,0
2016-06-09T02:21:37.996Z,0
2016-06-09T02:22:37.969Z,0
2016-06-09T02:23:37.941Z,0
2016-06-09T02:24:37.928Z,0
2016-06-09T02:25:37.916Z,0
2016-06-09T02:26:37.903Z,0
2016-06-09T02:27:37.890Z,0
2016-06-09T02:28:37.879Z,0
2016-06-09T02:29:37.866Z,0
2016-06-09T02:30:37.854Z,0
2016-06-09T02:31:37.857Z,0
2016-06-09T02:32:37.828Z,0
2016-06-09T02:33:37.816Z,0
2016-06-09T02:34:37.819Z,0
2016-06-09T02:35:37.775Z,0
2016-06-09T02:36:37.778Z,0
2016-06-09T02:37:37.765Z,0
2016-06-09T02:38:37.738Z,0
2016-06-09T02:39:37.740Z,0
2016-06-09T02:40:37.712Z,0
2016-06-09T02:41:37.700Z,0
2016-06-09T02:42:37.672Z,0
2016-06-09T02:43:37.674Z,0
2016-06-09T02:44:37.662Z,0
2016-06-09T02:45:37.649Z,0
2016-06-09T02:46:37.481Z,0
2016-06-09T02:47:37.624Z,0
2016-06-09T02:48:38.736Z,0
2016-06-09T02:49:37.521Z,0
2016-06-09T02:50:37.586Z,0
2016-06-09T02:51:37.558Z,0
2016-06-09T02:52:37.546Z,0
2016-06-09T02:53:37.533Z,0
2016-06-09T02:54:37.505Z,0
2016-06-09T02:55:37.509Z,0
2016-06-09T02:56:37.479Z,0
2016-06-09T02:57:37.467Z,0
2016-06-09T02:58:37.471Z,0
2016-06-09T02:59:37.458Z,0
2016-06-09T03:00:37.445Z,0
2016-06-09T03:01:37.417Z,0
2016-06-09T03:02:37.405Z,0
2016-06-09T03:03:37.251Z,0
2016-06-09T03:04:37.786Z,0
2016-06-09T03:05:37.368Z,0
2016-06-09T03:06:37.339Z,0
2016-06-09T03:07:37.342Z,0
2016-06-09T03:08:37.314Z,0
2016-06-09T03:09:37.317Z,0
2016-06-09T03:10:37.288Z,0
2016-06-09T03:11:37.276Z,0
2016-06-09T03:12:37.264Z,0
2016-06-09T03:13:37.251Z,0
2016-06-09T03:14:37.238Z,0
2016-06-09T03:15:37.226Z,0
2016-06-09T03:16:37.213Z,0
2016-06-09T03:17:37.201Z,0
2016-06-09T03:18:37.188Z,0
2016-06-09T03:19:37.363Z,0
2016-06-09T03:20:37.147Z,0
2016-06-09T03:21:37.150Z,0
2016-06-09T03:22:37.122Z,0
2016-06-09T03:23:37.109Z,0
2016-06-09T03:24:37.097Z,0
2016-06-09T03:25:37.085Z,0
2016-06-09T03:26:36.916Z,0
2016-06-09T03:27:37.074Z,0
2016-06-09T03:28:37.047Z,0
2016-06-09T03:29:36.863Z,0
2016-06-09T03:30:37.006Z,0
2016-06-09T03:31:36.837Z,0
2016-06-09T03:32:36.982Z,0
2016-06-09T03:33:36.968Z,0
2016-06-09T03:34:37.893Z,0
2016-06-09T03:35:36.960Z,0
2016-06-09T03:36:36.932Z,0
2016-06-09T03:37:36.918Z,0
2016-06-09T03:38:36.906Z,0
2016-06-09T03:39:36.909Z,0
2016-06-09T03:40:36.881Z,0
2016-06-09T03:41:36.883Z,0
2016-06-09T03:42:36.856Z,0
2016-06-09T03:43:36.828Z,0
2016-06-09T03:44:36.815Z,0
2016-06-09T03:45:36.802Z,0
2016-06-09T03:46:36.790Z,0
2016-06-09T03:47:36.761Z,0
2016-06-09T03:48:36.764Z,0
2016-06-09T03:49:36.925Z,0
2016-06-09T03:50:36.739Z,0
2016-06-09T03:51:36.727Z,0
2016-06-09T03:52:36.699Z,0
2016-06-09T03:53:36.702Z,0
2016-06-09T03:54:36.689Z,0
2016-06-09T03:55:36.661Z,0
2016-06-09T03:56:36.649Z,0
2016-06-09T03:57:36.636Z,0
2016-06-09T03:58:36.624Z,0
2016-06-09T03:59:36.611Z,0
2016-06-09T04:00:36.583Z,0
2016-06-09T04:01:36.601Z,0
2016-06-09T04:02:36.574Z,0
2016-06-09T04:03:36.546Z,0
2016-06-09T04:04:36.517Z,0
2016-06-09T04:05:36.536Z,0
2016-06-09T04:06:36.524Z,0
2016-06-09T04:07:36.495Z,0
2016-06-09T04:08:36.482Z,0
2016-06-09T04:09:36.454Z,0
2016-06-09T04:10:36.317Z,0
2016-06-09T04:11:36.132Z,0
2016-06-09T04:12:36.417Z,0
2016-06-09T04:13:36.404Z,0
2016-06-09T04:14:36.391Z,0
2016-06-09T04:15:36.380Z,0
2016-06-09T04:16:36.367Z,0
2016-06-09T04:17:36.197Z,0
2016-06-09T04:18:36.185Z,0
2016-06-09T04:19:36.782Z,0
2016-06-09T04:20:36.317Z,0
2016-06-09T04:21:36.287Z,0
2016-06-09T04:22:36.119Z,0
2016-06-09T04:23:36.107Z,0
2016-06-09T04:24:36.250Z,0
2016-06-09T04:25:36.238Z,0
2016-06-09T04:26:36.210Z,0
2016-06-09T04:27:36.213Z,0
2016-06-09T04:28:36.200Z,0
2016-06-09T04:29:36.188Z,0
2016-06-09T04:30:36.160Z,0
2016-06-09T04:31:36.147Z,0
2016-06-09T04:32:36.134Z,0
2016-06-09T04:33:36.122Z,0
2016-06-09T04:34:36.422Z,0
2016-06-09T04:35:35.924Z,0
2016-06-09T04:36:36.084Z,0
2016-06-09T04:37:35.915Z,0
2016-06-09T04:38:36.059Z,0
2016-06-09T04:39:36.031Z,0
2016-06-09T04:40:36.034Z,0
2016-06-09T04:41:36.006Z,0
2016-06-09T04:42:35.993Z,0
2016-06-09T04:43:35.981Z,0
2016-06-09T04:44:35.968Z,0
2016-06-09T04:45:35.955Z,0
2016-06-09T04:46:35.943Z,0
2016-06-09T04:47:35.790Z,0
2016-06-09T04:48:35.917Z,4
2016-06-09T04:49:36.390Z,4
2016-06-09T04:50:35.909Z,0
2016-06-09T04:51:35.865Z,4
2016-06-09T04:52:35.852Z,4
2016-06-09T04:53:35.855Z,4
2016-06-09T04:54:35.827Z,8
2016-06-09T04:55:35.814Z,8
2016-06-09T04:56:35.802Z,12
2016-06-09T04:57:35.790Z,16
2016-06-09T04:58:35.777Z,12
2016-06-09T04:59:35.764Z,16
2016-06-09T05:00:35.736Z,24
2016-06-09T05:01:35.724Z,24
2016-06-09T05:02:35.711Z,28
2016-06-09T05:03:35.714Z,36
2016-06-09T05:04:36.154Z,40
2016-06-09T05:05:35.673Z,48
2016-06-09T05:06:35.676Z,56
2016-06-09T05:07:35.632Z,68
2016-06-09T05:08:35.636Z,80
2016-06-09T05:09:35.638Z,88
2016-06-09T05:10:35.595Z,96
2016-06-09T05:11:35.599Z,112
2016-06-09T05:12:35.570Z,128
2016-06-09T05:13:35.557Z,144
2016-06-09T05:14:35.545Z,156
2016-06-09T05:15:35.532Z,168
2016-06-09T05:16:35.520Z,184
2016-06-09T05:17:35.507Z,196
2016-06-09T05:18:35.495Z,212
2016-06-09T05:19:35.716Z,228
2016-06-09T05:20:35.532Z,248
2016-06-09T05:21:35.441Z,264
2016-06-09T05:22:35.428Z,284
2016-06-09T05:23:35.416Z,304
2016-06-09T05:24:35.388Z,328
2016-06-09T05:25:35.392Z,352
2016-06-09T05:26:35.379Z,372
2016-06-09T05:27:35.038Z,396
2016-06-09T05:28:35.337Z,420
2016-06-09T05:29:35.325Z,444
2016-06-09T05:30:35.328Z,468
2016-06-09T05:31:35.300Z,496
2016-06-09T05:32:35.288Z,520
2016-06-09T05:33:35.275Z,548
2016-06-09T05:34:35.903Z,580
2016-06-09T05:35:35.891Z,608
2016-06-09T05:36:35.237Z,636
2016-06-09T05:37:35.224Z,664
2016-06-09T05:38:35.196Z,692
2016-06-09T05:39:35.185Z,720
2016-06-09T05:40:35.172Z,756
2016-06-09T05:41:35.159Z,788
2016-06-09T05:42:35.147Z,816
2016-06-09T05:43:35.133Z,840
2016-06-09T05:44:34.965Z,868
2016-06-09T05:45:35.092Z,888
2016-06-09T05:46:35.081Z,912
2016-06-09T05:47:35.068Z,932
2016-06-09T05:48:35.055Z,948
2016-06-09T05:49:34.902Z,964
2016-06-09T05:50:35.077Z,976
2016-06-09T05:51:35.033Z,988
2016-06-09T05:52:35.005Z,1004
2016-06-09T05:53:34.992Z,1020
2016-06-09T05:54:34.965Z,1028
2016-06-09T05:55:34.968Z,1032
2016-06-09T05:56:34.939Z,1040
2016-06-09T05:57:34.943Z,1048
2016-06-09T05:58:34.914Z,1060
2016-06-09T05:59:34.902Z,1072
2016-06-09T06:00:34.889Z,1080
2016-06-09T06:01:34.878Z,1100
2016-06-09T06:02:34.864Z,1112
2016-06-09T06:03:34.696Z,1120
2016-06-09T06:04:36.932Z,1128
2016-06-09T06:05:34.826Z,1148
2016-06-09T06:06:34.813Z,1168
2016-06-09T06:07:34.785Z,1184
2016-06-09T06:08:34.773Z,1200
2016-06-09T06:09:34.761Z,1212
2016-06-09T06:10:34.748Z,1236
2016-06-09T06:11:34.579Z,1244
2016-06-09T06:12:34.723Z,1256
2016-06-09T06:13:34.710Z,1264
2016-06-09T06:14:34.667Z,1284
2016-06-09T06:15:34.670Z,1304
2016-06-09T06:16:34.657Z,1312
2016-06-09T06:17:34.644Z,1328
2016-06-09T06:18:34.633Z,1344
2016-06-09T06:19:34.698Z,1368
2016-06-09T06:20:34.561Z,1404
2016-06-09T06:21:34.595Z,1416
2016-06-09T06:22:34.582Z,1420
2016-06-09T06:23:35.648Z,1404
2016-06-09T06:24:34.557Z,1404
2016-06-09T06:25:34.529Z,1412
2016-06-09T06:26:34.516Z,1416
2016-06-09T06:27:34.503Z,1424
2016-06-09T06:28:36.053Z,1424
2016-06-09T06:29:34.479Z,1420
2016-06-09T06:30:34.450Z,1428
2016-06-09T06:31:34.281Z,1428
2016-06-09T06:32:34.440Z,1432
2016-06-09T06:33:36.241Z,1440
2016-06-09T06:34:35.274Z,1444
2016-06-09T06:35:34.388Z,1448
2016-06-09T06:36:34.360Z,1452
2016-06-09T06:37:34.347Z,1460
2016-06-09T06:38:34.334Z,1476
2016-06-09T06:39:34.165Z,1496
2016-06-09T06:40:34.309Z,1512
2016-06-09T06:41:34.296Z,1528
2016-06-09T06:42:34.284Z,1552
2016-06-09T06:43:36.632Z,1564
2016-06-09T06:44:34.259Z,1572
2016-06-09T06:45:34.230Z,1592
2016-06-09T06:46:34.233Z,1624
2016-06-09T06:47:34.206Z,1636
2016-06-09T06:48:34.193Z,1664
2016-06-09T06:49:34.212Z,1668
2016-06-09T06:50:34.168Z,1680
2016-06-09T06:51:34.155Z,1692
2016-06-09T06:52:34.143Z,1704
2016-06-09T06:53:34.724Z,1720
2016-06-09T06:54:33.946Z,1732
2016-06-09T06:55:34.105Z,1744
2016-06-09T06:56:34.092Z,1752
2016-06-09T06:57:34.064Z,1776
2016-06-09T06:58:35.756Z,1800
2016-06-09T06:59:34.056Z,1820
2016-06-09T07:00:34.026Z,1852
2016-06-09T07:01:33.857Z,1884
2016-06-09T07:02:34.002Z,1916
2016-06-09T07:03:33.974Z,1932
2016-06-09T07:04:33.960Z,1940
2016-06-09T07:05:34.449Z,1972
2016-06-09T07:06:33.639Z,2020
2016-06-09T07:07:33.923Z,2040
2016-06-09T07:08:35.301Z,2040
2016-06-09T07:09:33.742Z,2068
2016-06-09T07:10:33.902Z,2116
2016-06-09T07:11:33.873Z,2136
2016-06-09T07:12:33.876Z,2144
2016-06-09T07:13:36.723Z,2156
2016-06-09T07:14:33.820Z,2156
2016-06-09T07:15:33.807Z,2160
2016-06-09T07:16:33.811Z,2212
2016-06-09T07:17:33.781Z,2244
2016-06-09T07:18:37.270Z,2264
2016-06-09T07:19:33.757Z,2296
2016-06-09T07:20:33.588Z,2252
2016-06-09T07:21:33.732Z,2304
2016-06-09T07:22:33.719Z,2328
2016-06-09T07:23:35.425Z,2388
2016-06-09T07:24:33.678Z,2396
2016-06-09T07:25:33.667Z,2404
2016-06-09T07:26:33.654Z,2436
2016-06-09T07:27:33.642Z,2444
2016-06-09T07:28:33.628Z,2452
2016-06-09T07:29:33.616Z,2508
2016-06-09T07:30:33.666Z,2520
2016-06-09T07:31:33.622Z,2540
2016-06-09T07:32:33.578Z,2528
2016-06-09T07:33:33.565Z,2524
2016-06-09T07:34:33.538Z,2508
2016-06-09T07:35:33.384Z,2528
2016-06-09T07:36:33.512Z,2488
2016-06-09T07:37:33.500Z,2520
2016-06-09T07:38:33.487Z,2592
2016-06-09T07:39:33.318Z,2576
2016-06-09T07:40:33.462Z,2592
2016-06-09T07:41:33.465Z,2576
2016-06-09T07:42:33.422Z,2572
2016-06-09T07:43:35.549Z,2592
2016-06-09T07:44:33.444Z,2552
2016-06-09T07:45:33.243Z,2636
2016-06-09T07:46:33.387Z,2640
2016-06-09T07:47:33.374Z,2636
2016-06-09T07:48:35.846Z,2560
2016-06-09T07:49:33.349Z,2600
2016-06-09T07:50:33.352Z,2624
2016-06-09T07:51:33.325Z,2648
2016-06-09T07:52:33.296Z,2624
2016-06-09T07:53:34.986Z,2648
2016-06-09T07:54:33.255Z,2672
2016-06-09T07:55:33.259Z,2680
2016-06-09T07:56:33.231Z,2708
2016-06-09T07:57:33.218Z,2680
2016-06-09T07:58:33.204Z,2656
2016-06-09T07:59:33.193Z,2760
2016-06-09T08:00:33.196Z,2800
2016-06-09T08:01:33.167Z,2828
2016-06-09T08:02:33.152Z,2812
2016-06-09T08:03:33.139Z,2772
2016-06-09T08:04:33.127Z,2848
2016-06-09T08:05:33.145Z,2880
2016-06-09T08:06:33.102Z,2908
2016-06-09T08:07:33.073Z,2932
2016-06-09T08:08:33.077Z,2888
2016-06-09T08:09:32.908Z,2848
2016-06-09T08:10:33.035Z,2940
2016-06-09T08:11:33.008Z,2984
2016-06-09T08:12:33.011Z,3012
2016-06-09T08:13:34.486Z,3020
2016-06-09T08:14:32.986Z,3032
2016-06-09T08:15:32.972Z,3008
2016-06-09T08:16:32.960Z,3040
2016-06-09T08:17:32.948Z,3068
2016-06-09T08:18:32.935Z,3092
2016-06-09T08:19:32.907Z,3084
2016-06-09T08:20:32.927Z,3140
2016-06-09T08:21:32.897Z,3148
2016-06-09T08:22:32.714Z,3180
2016-06-09T08:23:32.872Z,3196
2016-06-09T08:24:32.845Z,3172
2016-06-09T08:25:32.834Z,3216
2016-06-09T08:26:32.879Z,3244
2016-06-09T08:27:32.738Z,3276
2016-06-09T08:28:32.939Z,3300
2016-06-09T08:29:32.955Z,3356
2016-06-09T08:30:32.983Z,3368
2016-06-09T08:31:32.985Z,3392
2016-06-09T08:32:33.004Z,3384
2016-06-09T08:33:32.991Z,3404
2016-06-09T08:34:32.994Z,3412
2016-06-09T08:35:33.168Z,3428
2016-06-09T08:36:32.833Z,3484
2016-06-09T08:37:32.983Z,3492
2016-06-09T08:38:32.959Z,3448
2016-06-09T08:39:32.811Z,3468
2016-06-09T08:40:32.960Z,3540
2016-06-09T08:41:32.949Z,3620
2016-06-09T08:42:32.768Z,3704
2016-06-09T08:43:32.757Z,3724
2016-06-09T08:44:32.903Z,3788
2016-06-09T08:45:33.032Z,3896
2016-06-09T08:46:32.879Z,3996
2016-06-09T08:47:32.868Z,4072
2016-06-09T08:48:33.028Z,4128
2016-06-09T08:49:32.845Z,4144
2016-06-09T08:50:32.692Z,4156
2016-06-09T08:51:32.820Z,4164
2016-06-09T08:52:32.808Z,4256
2016-06-09T08:53:34.046Z,4328
2016-06-09T08:54:32.628Z,4408
2016-06-09T08:55:32.600Z,4408
2016-06-09T08:56:32.760Z,4432
2016-06-09T08:57:32.731Z,4524
2016-06-09T08:58:35.063Z,4580
2016-06-09T08:59:32.707Z,4540
2016-06-09T09:00:32.709Z,4612
2016-06-09T09:01:32.696Z,4680
2016-06-09T09:02:32.668Z,4676
2016-06-09T09:03:32.655Z,4772
2016-06-09T09:04:32.658Z,4800
2016-06-09T09:05:32.647Z,4788
2016-06-09T09:06:32.618Z,4764
2016-06-09T09:07:32.606Z,4636
2016-06-09T09:08:33.843Z,4452
2016-06-09T09:09:32.580Z,4488
2016-06-09T09:10:32.552Z,4320
2016-06-09T09:11:32.556Z,4364
2016-06-09T09:12:32.543Z,4128
2016-06-09T09:13:34.453Z,4340
2016-06-09T09:14:32.518Z,4264
2016-06-09T09:15:32.365Z,4396
2016-06-09T09:16:32.523Z,4360
2016-06-09T09:17:32.496Z,4336
2016-06-09T09:18:32.312Z,4280
2016-06-09T09:19:32.455Z,4180
2016-06-09T09:20:32.849Z,4280
2016-06-09T09:21:32.555Z,4264
2016-06-09T09:22:32.417Z,4248
2016-06-09T09:23:32.420Z,4260
2016-06-09T09:24:32.236Z,4204
2016-06-09T09:25:32.379Z,4464
2016-06-09T09:26:32.367Z,4516
2016-06-09T09:27:32.354Z,4584
2016-06-09T09:28:32.343Z,4656
2016-06-09T09:29:32.329Z,4692
2016-06-09T09:30:32.316Z,4716
2016-06-09T09:31:32.305Z,4748
2016-06-09T09:32:32.135Z,4784
2016-06-09T09:33:32.278Z,4848
2016-06-09T09:34:32.267Z,4908
2016-06-09T09:35:32.567Z,5028
2016-06-09T09:36:32.273Z,5124
2016-06-09T09:37:32.229Z,5268
2016-06-09T09:38:32.233Z,5472
2016-06-09T09:39:32.204Z,5420
2016-06-09T09:40:32.988Z,5308
2016-06-09T09:41:32.944Z,5276
2016-06-09T09:42:32.167Z,5260
2016-06-09T09:43:32.169Z,5336
2016-06-09T09:44:32.157Z,5228
2016-06-09T09:45:32.145Z,5388
2016-06-09T09:46:32.132Z,5480
2016-06-09T09:47:31.963Z,5652
2016-06-09T09:48:32.106Z,5776
2016-06-09T09:49:32.078Z,5900
2016-06-09T09:50:32.519Z,5636
2016-06-09T09:51:32.101Z,6072
2016-06-09T09:52:32.057Z,6096
2016-06-09T09:53:32.090Z,6280
2016-06-09T09:54:32.078Z,6360
2016-06-09T09:55:32.019Z,6344
2016-06-09T09:56:32.007Z,6372
2016-06-09T09:57:31.977Z,6740
2016-06-09T09:58:31.981Z,6500
2016-06-09T09:59:31.968Z,6508
2016-06-09T10:00:31.816Z,6320
2016-06-09T10:01:31.959Z,6708
2016-06-09T10:02:31.931Z,6440
2016-06-09T10:03:31.762Z,6436
2016-06-09T10:04:31.921Z,6492
2016-06-09T10:05:31.737Z,6612
2016-06-09T10:06:31.896Z,6932
2016-06-09T10:07:31.883Z,7084
2016-06-09T10:08:31.855Z,7004
2016-06-09T10:09:31.687Z,7128
2016-06-09T10:10:31.830Z,7236
2016-06-09T10:11:31.834Z,7324
2016-06-09T10:12:31.821Z,7372
2016-06-09T10:13:31.809Z,7348
2016-06-09T10:14:31.796Z,7488
2016-06-09T10:15:31.783Z,7604
2016-06-09T10:16:31.849Z,8096
2016-06-09T10:17:31.602Z,8168
2016-06-09T10:18:31.746Z,8116
2016-06-09T10:19:31.733Z,8184
2016-06-09T10:20:32.267Z,8476
2016-06-09T10:21:32.599Z,8740
2016-06-09T10:22:31.758Z,8680
2016-06-09T10:23:31.699Z,8552
2016-06-09T10:24:31.671Z,8560
2016-06-09T10:25:31.704Z,8704
2016-06-09T10:26:31.676Z,8680
2016-06-09T10:27:31.633Z,8408
2016-06-09T10:28:31.698Z,8720
2016-06-09T10:29:31.639Z,9088
2016-06-09T10:30:31.611Z,9252
2016-06-09T10:31:31.599Z,9084
2016-06-09T10:32:31.601Z,8836
2016-06-09T10:33:31.588Z,8836
2016-06-09T10:34:31.576Z,8688
2016-06-09T10:35:32.141Z,8476
2016-06-09T10:36:31.598Z,8188
2016-06-09T10:37:31.554Z,7964
2016-06-09T10:38:31.603Z,7864
2016-06-09T10:39:31.513Z,7852
2016-06-09T10:40:31.501Z,8416
2016-06-09T10:41:31.582Z,8500
2016-06-09T10:42:31.476Z,8476
2016-06-09T10:43:31.526Z,8596
2016-06-09T10:44:31.497Z,8644
2016-06-09T10:45:31.454Z,8784
2016-06-09T10:46:31.458Z,9048
2016-06-09T10:47:31.444Z,9080
2016-06-09T10:48:31.431Z,9012
2016-06-09T10:49:31.420Z,9364
2016-06-09T10:50:31.859Z,9572
2016-06-09T10:51:31.926Z,9676
2016-06-09T10:52:31.226Z,9204
2016-06-09T10:53:31.369Z,9324
2016-06-09T10:54:31.638Z,9836
2016-06-09T10:55:31.343Z,9616
2016-06-09T10:56:31.347Z,9904
2016-06-09T10:57:31.209Z,10140
2016-06-09T10:58:31.306Z,9996
2016-06-09T10:59:31.309Z,9688
2016-06-09T11:00:31.297Z,9968
2016-06-09T11:01:31.378Z,9944
2016-06-09T11:02:31.288Z,10312
2016-06-09T11:03:31.274Z,10244
2016-06-09T11:04:31.247Z,10516
2016-06-09T11:05:31.109Z,10616
2016-06-09T11:06:31.252Z,10876
2016-06-09T11:07:31.240Z,10560
2016-06-09T11:08:31.228Z,10164
2016-06-09T11:09:31.215Z,10404
2016-06-09T11:10:31.218Z,10372
2016-06-09T11:11:31.190Z,10084
2016-06-09T11:12:31.037Z,10352
2016-06-09T11:13:31.180Z,10504
2016-06-09T11:14:31.168Z,10392
2016-06-09T11:15:31.202Z,10196
2016-06-09T11:16:31.017Z,10124
2016-06-09T11:17:31.130Z,10380
2016-06-09T11:18:30.961Z,10608
2016-06-09T11:19:31.121Z,10380
2016-06-09T11:20:31.107Z,10636
2016-06-09T11:21:32.440Z,10456
2016-06-09T11:22:31.068Z,10392
2016-06-09T11:23:31.477Z,11036
2016-06-09T11:24:31.089Z,10812
2016-06-09T11:25:31.061Z,10964
2016-06-09T11:26:31.048Z,10856
2016-06-09T11:27:31.083Z,11168
2016-06-09T11:28:31.024Z,10776
2016-06-09T11:29:31.010Z,11796
2016-06-09T11:30:31.014Z,15616
2016-06-09T11:31:31.016Z,38816
2016-06-09T11:32:31.004Z,66144
2016-06-09T11:33:30.977Z,89824
2016-06-09T11:34:30.980Z,90688
2016-06-09T11:35:30.966Z,97056
2016-06-09T11:36:31.595Z,104608
2016-06-09T11:37:30.957Z,101824
2016-06-09T11:38:30.945Z,98880
2016-06-09T11:39:30.948Z,95200
2016-06-09T11:40:30.951Z,94272
2016-06-09T11:41:30.939Z,87424
2016-06-09T11:42:30.925Z,94240
2016-06-09T11:43:30.929Z,95008
2016-06-09T11:44:30.901Z,89120
2016-06-09T11:45:30.935Z,91264
2016-06-09T11:46:30.923Z,95488
2016-06-09T11:47:30.910Z,101824
2016-06-09T11:48:30.741Z,105248
2016-06-09T11:49:30.743Z,101056
2016-06-09T11:50:30.732Z,83552
2016-06-09T11:51:31.469Z,93088
2016-06-09T11:52:30.894Z,91936
2016-06-09T11:53:30.897Z,72832
2016-06-09T11:54:30.901Z,89024
2016-06-09T11:55:30.887Z,88928
2016-06-09T11:56:30.891Z,94976
2016-06-09T11:57:30.878Z,95936
2016-06-09T11:58:30.897Z,82976
2016-06-09T11:59:30.885Z,87936
2016-06-09T12:00:30.902Z,90144
2016-06-09T12:01:30.891Z,85952
2016-06-09T12:02:30.894Z,86848
2016-06-09T12:03:30.725Z,78016
2016-06-09T12:04:30.884Z,45568
2016-06-09T12:05:30.715Z,34080
2016-06-09T12:06:31.749Z,25472
2016-06-09T12:07:30.893Z,23072
2016-06-09T12:08:30.865Z,24000
2016-06-09T12:09:30.883Z,23008
2016-06-09T12:10:30.699Z,23424
2016-06-09T12:11:30.703Z,23488
2016-06-09T12:12:30.861Z,22624
2016-06-09T12:13:30.864Z,21760
2016-06-09T12:14:30.867Z,21728
2016-06-09T12:15:30.856Z,21824
2016-06-09T12:16:30.843Z,21824
2016-06-09T12:17:30.862Z,21472
2016-06-09T12:18:30.849Z,21184
2016-06-09T12:19:30.868Z,20736
2016-06-09T12:20:30.839Z,20960
2016-06-09T12:21:31.155Z,21120
2016-06-09T12:22:31.002Z,21856
2016-06-09T12:23:30.833Z,23776
2016-06-09T12:24:30.852Z,24928
2016-06-09T12:25:30.854Z,23104
2016-06-09T12:26:30.843Z,22336
2016-06-09T12:27:30.674Z,21856
2016-06-09T12:28:30.832Z,21760
2016-06-09T12:29:30.836Z,21792
2016-06-09T12:30:30.823Z,21600
2016-06-09T12:31:30.842Z,22048
2016-06-09T12:32:30.829Z,22176
2016-06-09T12:33:30.817Z,22112
2016-06-09T12:34:30.507Z,22112
2016-06-09T12:35:30.807Z,21984
2016-06-09T12:36:30.827Z,22528
2016-06-09T12:37:31.111Z,21888
2016-06-09T12:38:31.036Z,21376
2016-06-09T12:39:30.804Z,20928
2016-06-09T12:40:30.822Z,20544
2016-06-09T12:41:30.795Z,22400
2016-06-09T12:42:30.798Z,22976
2016-06-09T12:43:30.879Z,23296
2016-06-09T12:44:30.804Z,23904
2016-06-09T12:45:30.776Z,23616
2016-06-09T12:46:30.888Z,24192
2016-06-09T12:47:30.782Z,24192
2016-06-09T12:48:30.769Z,24896
2016-06-09T12:49:30.616Z,25184
2016-06-09T12:50:30.760Z,25248
2016-06-09T12:51:30.779Z,25888
2016-06-09T12:52:30.750Z,29376
2016-06-09T12:53:30.768Z,33248
2016-06-09T12:54:30.756Z,35712
2016-06-09T12:55:30.760Z,45024
2016-06-09T12:56:30.590Z,53280
2016-06-09T12:57:30.766Z,57344
2016-06-09T12:58:30.738Z,64864
2016-06-09T12:59:30.756Z,65504
2016-06-09T13:00:30.572Z,67904
2016-06-09T13:01:30.747Z,74080
2016-06-09T13:02:30.734Z,68640
2016-06-09T13:03:30.784Z,73120
2016-06-09T13:04:30.724Z,77056
2016-06-09T13:05:30.728Z,77056
2016-06-09T13:06:30.575Z,74272
2016-06-09T13:07:30.719Z,74848
2016-06-09T13:08:30.706Z,82592
2016-06-09T13:09:30.739Z,83136
2016-06-09T13:10:30.712Z,84704
2016-06-09T13:11:30.699Z,78560
2016-06-09T13:12:30.687Z,75104
2016-06-09T13:13:30.690Z,75936
2016-06-09T13:14:30.693Z,75488
2016-06-09T13:15:30.525Z,75968
2016-06-09T13:16:30.683Z,72960
2016-06-09T13:17:30.671Z,80896
2016-06-09T13:18:30.534Z,80544
2016-06-09T13:19:30.521Z,81568
2016-06-09T13:20:30.696Z,82752
2016-06-09T13:21:30.745Z,86176
2016-06-09T13:22:31.202Z,89024
2016-06-09T13:23:30.689Z,91936
2016-06-09T13:24:30.660Z,92256
2016-06-09T13:25:30.852Z,95296
2016-06-09T13:26:30.652Z,95648
2016-06-09T13:27:30.655Z,95136
2016-06-09T13:28:30.689Z,95392
2016-06-09T13:29:30.693Z,91648
2016-06-09T13:30:30.524Z,94592
2016-06-09T13:31:30.495Z,93184
2016-06-09T13:32:30.654Z,85952
2016-06-09T13:33:30.641Z,90272
2016-06-09T13:34:30.645Z,91840
2016-06-09T13:35:30.648Z,80512
2016-06-09T13:36:31.183Z,81600
2016-06-09T13:37:31.889Z,80832
2016-06-09T13:38:30.642Z,78272
2016-06-09T13:39:30.660Z,81536
2016-06-09T13:40:30.632Z,92640
2016-06-09T13:41:30.635Z,91776
2016-06-09T13:42:30.638Z,94528
2016-06-09T13:43:30.485Z,96192
2016-06-09T13:44:30.660Z,95872